createdAt,value
2019-04-30T00:01:48.484Z,2.92
2019-04-30T00:04:17.297Z,2.85
2019-04-30T00:06:46.025Z,3.27
2019-04-30T00:09:19.043Z,2.77
2019-04-30T00:11:50.548Z,3.25
2019-04-30T00:14:17.483Z,3.37
2019-04-30T00:16:46.196Z,3.20
2019-04-30T00:19:19.170Z,3.27
2019-04-30T00:21:48.316Z,2.85
2019-04-30T00:24:15.922Z,3.05
2019-04-30T00:26:50.093Z,2.87
2019-04-30T00:29:19.188Z,3.47
2019-04-30T00:31:47.122Z,2.67
2019-04-30T00:34:15.914Z,2.67
2019-04-30T00:36:45.994Z,3.58
2019-04-30T00:39:16.726Z,2.80
2019-04-30T00:41:47.368Z,2.40
2019-04-30T00:44:19.886Z,3.00
2019-04-30T00:46:47.986Z,3.10
2019-04-30T00:49:22.840Z,3.45
2019-04-30T00:51:49.868Z,2.98
2019-04-30T00:54:17.818Z,2.75
2019-04-30T00:56:46.484Z,2.80
2019-04-30T00:59:15.545Z,2.75
2019-04-30T01:01:51.917Z,3.65
2019-04-30T01:04:28.173Z,2.62
2019-04-30T01:06:59.990Z,2.70
2019-04-30T01:09:26.385Z,3.00
2019-04-30T01:11:55.343Z,2.83
2019-04-30T01:14:28.360Z,2.87
2019-04-30T01:16:54.598Z,2.58
2019-04-30T01:19:30.146Z,2.50
2019-04-30T01:21:54.008Z,2.60
2019-04-30T01:24:23.518Z,2.70
2019-04-30T01:26:53.557Z,2.85
2019-04-30T01:29:22.264Z,2.30
2019-04-30T01:31:50.978Z,2.52
2019-04-30T01:34:19.779Z,2.85
2019-04-30T01:36:52.068Z,3.58
2019-04-30T01:39:19.515Z,2.85
2019-04-30T01:41:48.835Z,2.45
2019-04-30T01:44:19.395Z,2.92
2019-04-30T01:46:51.475Z,3.37
2019-04-30T01:49:20.210Z,2.60
2019-04-30T01:51:52.930Z,2.98
2019-04-30T01:54:23.940Z,2.27
2019-04-30T01:56:51.299Z,2.80
2019-04-30T01:59:33.664Z,2.42
2019-04-30T02:02:02.428Z,2.37
2019-04-30T02:04:31.444Z,3.05
2019-04-30T02:07:00.320Z,2.37
2019-04-30T02:09:29.063Z,2.42
2019-04-30T02:11:59.860Z,2.62
2019-04-30T02:14:28.731Z,2.87
2019-04-30T02:16:59.011Z,2.22
2019-04-30T02:19:28.780Z,2.98
2019-04-30T02:21:58.574Z,2.45
2019-04-30T02:24:28.879Z,2.62
2019-04-30T02:26:59.370Z,3.22
2019-04-30T02:29:29.699Z,3.08
2019-04-30T02:32:00.581Z,2.83
2019-04-30T02:34:30.503Z,2.90
2019-04-30T02:37:03.757Z,2.85
2019-04-30T02:39:32.526Z,3.33
2019-04-30T02:42:03.391Z,2.80
2019-04-30T02:44:33.116Z,3.37
2019-04-30T02:47:02.230Z,3.08
2019-04-30T02:49:33.252Z,2.60
2019-04-30T02:52:04.189Z,3.00
2019-04-30T02:54:35.706Z,2.55
2019-04-30T02:57:06.081Z,3.72
2019-04-30T02:59:40.165Z,2.77
2019-04-30T03:02:11.521Z,2.72
2019-04-30T03:04:39.551Z,3.05
2019-04-30T03:07:09.801Z,3.30
2019-04-30T03:09:39.395Z,2.83
2019-04-30T03:12:08.707Z,3.42
2019-04-30T03:14:39.937Z,3.87
2019-04-30T03:17:15.366Z,3.20
2019-04-30T03:19:45.726Z,3.27
2019-04-30T03:22:16.101Z,3.15
2019-04-30T03:24:44.830Z,3.45
2019-04-30T03:27:13.529Z,3.80
2019-04-30T03:29:42.247Z,3.25
2019-04-30T03:32:13.499Z,3.25
2019-04-30T03:34:42.601Z,3.85
2019-04-30T03:37:11.548Z,3.30
2019-04-30T03:39:40.423Z,3.90
2019-04-30T03:42:09.968Z,3.35
2019-04-30T03:44:40.034Z,3.50
2019-04-30T03:47:11.059Z,4.37
2019-04-30T03:49:40.331Z,3.50
2019-04-30T03:52:10.001Z,3.52
2019-04-30T03:54:40.843Z,3.42
2019-04-30T03:57:10.691Z,3.27
2019-04-30T03:59:40.112Z,3.10
2019-04-30T04:02:12.908Z,3.65
2019-04-30T04:04:45.762Z,3.30
2019-04-30T04:07:20.352Z,3.52
2019-04-30T04:09:50.863Z,3.47
2019-04-30T04:12:30.511Z,3.17
2019-04-30T04:15:03.266Z,3.20
2019-04-30T04:17:31.263Z,3.65
2019-04-30T04:19:59.744Z,3.30
2019-04-30T04:22:30.614Z,3.50
2019-04-30T04:25:00.140Z,3.55
2019-04-30T04:27:30.187Z,4.10
2019-04-30T04:30:01.099Z,3.00
2019-04-30T04:32:30.816Z,3.50
2019-04-30T04:35:00.399Z,3.42
2019-04-30T04:37:30.284Z,3.42
2019-04-30T04:39:59.652Z,3.50
2019-04-30T04:42:29.965Z,5.15
2019-04-30T04:44:59.641Z,3.25
2019-04-30T04:47:30.942Z,3.77
2019-04-30T04:50:00.767Z,3.47
2019-04-30T04:52:31.412Z,4.25
2019-04-30T04:55:00.569Z,4.03
2019-04-30T04:57:30.491Z,3.60
2019-04-30T05:00:06.454Z,3.83
2019-04-30T05:02:32.720Z,4.00
2019-04-30T05:05:01.797Z,4.12
2019-04-30T05:07:30.575Z,4.00
2019-04-30T05:10:01.024Z,4.62
2019-04-30T05:12:30.011Z,4.15
2019-04-30T05:14:59.756Z,4.28
2019-04-30T05:17:31.695Z,4.42
2019-04-30T05:19:59.373Z,4.65
2019-04-30T05:22:29.339Z,3.90
2019-04-30T05:24:58.856Z,4.30
2019-04-30T05:27:27.829Z,4.53
2019-04-30T05:29:56.627Z,4.15
2019-04-30T05:32:25.440Z,3.98
2019-04-30T05:34:54.269Z,4.65
2019-04-30T05:37:22.993Z,3.80
2019-04-30T05:39:51.805Z,4.78
2019-04-30T05:42:20.638Z,3.70
2019-04-30T05:44:49.847Z,4.10
2019-04-30T05:47:19.631Z,4.10
2019-04-30T05:49:49.060Z,4.20
2019-04-30T05:52:19.919Z,3.98
2019-04-30T05:54:48.764Z,3.67
2019-04-30T05:57:19.594Z,5.28
2019-04-30T05:59:48.708Z,4.97
2019-04-30T06:02:19.306Z,4.70
2019-04-30T06:04:48.893Z,4.28
2019-04-30T06:07:18.924Z,4.55
2019-04-30T06:09:50.832Z,4.47
2019-04-30T06:15:15.788Z,5.30
2019-04-30T06:17:59.736Z,4.60
2019-04-30T06:20:21.033Z,5.37
2019-04-30T06:22:52.193Z,5.10
2019-04-30T06:25:31.847Z,4.35
2019-04-30T06:27:52.076Z,3.20
2019-04-30T06:30:21.094Z,4.55
2019-04-30T06:32:49.925Z,4.75
2019-04-30T06:35:19.299Z,3.75
2019-04-30T06:37:48.932Z,3.80
2019-04-30T06:40:19.629Z,5.35
2019-04-30T06:42:49.505Z,3.58
2019-04-30T06:45:19.181Z,4.42
2019-04-30T06:47:49.054Z,5.03
2019-04-30T06:50:19.348Z,4.42
2019-04-30T06:52:56.335Z,3.95
2019-04-30T06:55:19.263Z,3.55
2019-04-30T06:57:49.658Z,3.67
2019-04-30T07:00:32.692Z,3.15
2019-04-30T07:02:50.474Z,3.40
2019-04-30T07:05:19.250Z,2.85
2019-04-30T07:08:09.869Z,3.02
2019-04-30T07:10:37.354Z,3.25
2019-04-30T07:13:13.555Z,2.80
2019-04-30T07:15:42.297Z,2.80
2019-04-30T07:18:11.029Z,2.77
2019-04-30T07:20:39.753Z,3.25
2019-04-30T07:23:09.317Z,3.45
2019-04-30T07:25:39.115Z,3.05
2019-04-30T07:28:08.991Z,3.20
2019-04-30T07:30:39.565Z,3.70
2019-04-30T07:33:09.560Z,3.05
2019-04-30T07:35:39.935Z,3.30
2019-04-30T07:38:09.393Z,3.22
2019-04-30T07:40:39.034Z,3.83
2019-04-30T07:43:09.079Z,3.17
2019-04-30T07:45:39.746Z,3.52
2019-04-30T07:48:09.289Z,3.40
2019-04-30T07:50:41.124Z,3.00
2019-04-30T07:53:11.122Z,3.35
2019-04-30T07:55:39.399Z,3.50
2019-04-30T07:58:09.094Z,3.27
2019-04-30T08:00:40.247Z,3.52
2019-04-30T08:03:16.206Z,3.30
2019-04-30T08:05:50.066Z,3.25
2019-04-30T08:08:24.518Z,3.92
2019-04-30T08:10:50.931Z,3.20
2019-04-30T08:13:21.866Z,3.20
2019-04-30T08:15:50.339Z,3.58
2019-04-30T08:18:19.186Z,3.72
2019-04-30T08:20:49.002Z,4.62
2019-04-30T08:23:33.563Z,50.92
2019-04-30T08:25:48.883Z,4.28
2019-04-30T08:28:18.733Z,3.92
2019-04-30T08:30:48.989Z,3.12
2019-04-30T08:33:19.362Z,3.02
2019-04-30T08:35:49.893Z,3.92
2019-04-30T08:38:19.133Z,3.55
2019-04-30T08:40:56.252Z,3.42
2019-04-30T08:43:19.851Z,3.42
2019-04-30T08:45:48.893Z,3.00
2019-04-30T08:48:18.997Z,3.17
2019-04-30T08:50:49.415Z,3.20
2019-04-30T08:53:27.571Z,3.27
2019-04-30T08:55:49.179Z,3.33
2019-04-30T08:58:20.582Z,2.92
2019-04-30T09:00:48.648Z,3.15
2019-04-30T09:03:19.333Z,3.47
2019-04-30T09:05:49.918Z,2.87
2019-04-30T09:08:19.426Z,2.83
2019-04-30T09:10:49.080Z,3.50
2019-04-30T09:13:19.181Z,3.20
2019-04-30T09:15:49.204Z,3.40
2019-04-30T09:18:19.088Z,3.90
2019-04-30T09:20:49.547Z,3.60
2019-04-30T09:23:18.761Z,3.20
2019-04-30T09:25:49.543Z,3.65
2019-04-30T09:28:19.833Z,3.10
2019-04-30T09:30:48.558Z,3.17
2019-04-30T09:33:19.040Z,2.80
2019-04-30T09:35:49.397Z,3.35
2019-04-30T09:38:19.566Z,3.52
2019-04-30T09:40:50.569Z,3.20
2019-04-30T09:43:18.891Z,3.40
2019-04-30T09:45:49.573Z,3.70
2019-04-30T09:48:18.987Z,3.67
2019-04-30T09:50:49.691Z,3.00
2019-04-30T09:53:19.489Z,3.50
2019-04-30T09:55:49.655Z,3.77
2019-04-30T09:58:21.131Z,3.65
2019-04-30T10:00:50.394Z,3.52
2019-04-30T10:03:20.377Z,3.30
2019-04-30T10:05:49.923Z,3.12
2019-04-30T10:08:20.265Z,3.08
2019-04-30T10:10:58.697Z,3.83
2019-04-30T10:13:27.176Z,4.15
2019-04-30T10:16:06.299Z,3.02
2019-04-30T10:18:35.096Z,3.40
2019-04-30T10:21:03.855Z,2.87
2019-04-30T10:23:32.535Z,2.85
2019-04-30T10:26:01.356Z,3.00
2019-04-30T10:28:30.133Z,3.10
2019-04-30T10:30:58.822Z,2.60
2019-04-30T10:33:28.699Z,3.10
2019-04-30T10:35:59.393Z,2.80
2019-04-30T10:38:29.330Z,2.45
2019-04-30T10:40:58.741Z,2.77
2019-04-30T10:43:29.065Z,3.02
2019-04-30T10:45:58.573Z,2.65
2019-04-30T10:48:27.465Z,2.77
2019-04-30T10:50:56.271Z,3.17
2019-04-30T10:53:24.998Z,3.00
2019-04-30T10:55:53.713Z,2.65
2019-04-30T10:58:22.447Z,2.98
2019-04-30T11:00:51.156Z,2.85
2019-04-30T11:03:22.952Z,2.67
2019-04-30T11:05:50.240Z,2.87
2019-04-30T11:08:18.951Z,2.22
2019-04-30T11:10:47.770Z,3.12
2019-04-30T11:13:16.510Z,2.70
2019-04-30T11:15:45.517Z,2.30
2019-04-30T11:18:14.606Z,3.02
2019-04-30T11:20:43.949Z,3.27
2019-04-30T11:23:14.530Z,3.02
2019-04-30T11:25:43.804Z,2.72
2019-04-30T11:28:13.657Z,3.10
2019-04-30T11:30:43.866Z,2.80
2019-04-30T11:33:13.139Z,3.33
2019-04-30T11:35:42.169Z,2.47
2019-04-30T11:38:10.912Z,3.22
2019-04-30T11:40:40.081Z,2.70
2019-04-30T11:43:08.848Z,2.58
2019-04-30T11:45:55.870Z,3.12
2019-04-30T11:48:24.688Z,3.15
2019-04-30T11:50:53.413Z,2.60
2019-04-30T11:53:27.616Z,2.80
2019-04-30T11:55:52.667Z,2.52
2019-04-30T11:58:22.029Z,2.35
2019-04-30T12:00:50.990Z,2.62
2019-04-30T12:03:19.714Z,2.33
2019-04-30T12:05:49.004Z,2.47
2019-04-30T12:08:22.637Z,2.45
2019-04-30T12:11:02.064Z,2.27
2019-04-30T12:13:31.671Z,2.00
2019-04-30T12:16:00.750Z,2.60
2019-04-30T12:18:29.783Z,2.45
2019-04-30T12:20:58.464Z,2.50
2019-04-30T12:23:27.186Z,2.83
2019-04-30T12:25:55.896Z,2.52
2019-04-30T12:28:27.210Z,3.22
2019-04-30T12:30:55.111Z,2.25
2019-04-30T12:33:23.857Z,2.37
2019-04-30T12:35:52.546Z,2.33
2019-04-30T12:38:21.236Z,2.02
2019-04-30T12:40:49.975Z,2.65
2019-04-30T12:43:18.685Z,2.45
2019-04-30T12:45:52.631Z,2.70
2019-04-30T12:48:22.079Z,2.17
2019-04-30T12:50:55.424Z,2.60
2019-04-30T12:53:44.054Z,2.90
2019-04-30T12:56:26.716Z,2.40
2019-04-30T12:58:50.897Z,3.00
2019-04-30T13:01:19.604Z,3.27
2019-04-30T13:03:58.139Z,2.25
2019-04-30T13:06:19.285Z,2.40
2019-04-30T13:08:51.721Z,2.45
2019-04-30T13:11:20.974Z,3.10
2019-04-30T13:13:50.569Z,3.05
2019-04-30T13:16:19.548Z,3.10
2019-04-30T13:18:49.411Z,2.50
2019-04-30T13:21:18.527Z,3.10
2019-04-30T13:23:47.415Z,3.33
2019-04-30T13:26:16.128Z,3.30
2019-04-30T13:28:49.644Z,3.72
2019-04-30T13:31:19.363Z,5.33
2019-04-30T13:33:51.167Z,4.30
2019-04-30T13:36:20.359Z,4.90
2019-04-30T13:38:52.324Z,4.70
2019-04-30T13:41:22.853Z,4.45
2019-04-30T13:43:58.620Z,3.47
2019-04-30T13:46:28.351Z,4.25
2019-04-30T13:48:57.233Z,7.17
2019-04-30T13:51:25.952Z,4.95
2019-04-30T13:53:55.200Z,6.17
2019-04-30T13:56:23.909Z,7.08
2019-04-30T13:58:52.706Z,5.35
2019-04-30T14:01:21.572Z,6.37
2019-04-30T14:04:03.868Z,7.37
2019-04-30T14:06:34.232Z,7.55
2019-04-30T14:09:19.962Z,5.05
2019-04-30T14:11:48.692Z,4.53
2019-04-30T14:14:18.385Z,7.08
2019-04-30T14:16:48.236Z,4.33
2019-04-30T14:19:17.029Z,4.17
2019-04-30T14:21:46.843Z,5.35
2019-04-30T14:24:19.145Z,5.08
2019-04-30T14:26:46.118Z,5.28
2019-04-30T14:29:14.845Z,4.00
2019-04-30T14:31:43.661Z,5.03
2019-04-30T14:34:12.558Z,6.37
2019-04-30T14:36:41.459Z,5.67
2019-04-30T14:39:14.626Z,4.50
2019-04-30T14:41:41.408Z,4.75
2019-04-30T14:44:12.751Z,5.58
2019-04-30T14:46:55.478Z,5.47
2019-04-30T14:49:43.058Z,6.30
2019-04-30T14:52:13.212Z,6.47
2019-04-30T14:55:00.315Z,8.38
2019-04-30T14:57:45.877Z,8.13
2019-04-30T15:00:29.343Z,8.23
2019-04-30T15:03:00.648Z,7.62
2019-04-30T15:05:38.946Z,6.97
2019-04-30T15:08:00.937Z,6.80
2019-04-30T15:10:29.911Z,5.12
2019-04-30T15:13:00.224Z,4.58
2019-04-30T15:15:29.281Z,4.20
2019-04-30T15:17:59.308Z,3.05
2019-04-30T15:20:29.675Z,2.77
2019-04-30T15:23:00.213Z,3.00
2019-04-30T15:25:34.004Z,2.70
2019-04-30T15:27:59.289Z,2.72
2019-04-30T15:30:28.923Z,3.22
2019-04-30T15:33:15.821Z,3.10
2019-04-30T15:35:44.651Z,2.83
2019-04-30T15:38:13.617Z,2.60
2019-04-30T15:40:42.342Z,2.92
2019-04-30T15:43:11.224Z,3.30
2019-04-30T15:45:40.136Z,2.75
2019-04-30T15:48:08.852Z,3.20
2019-04-30T15:50:39.265Z,2.90
2019-04-30T15:53:09.468Z,2.77
2019-04-30T15:55:38.267Z,2.72
2019-04-30T15:58:25.268Z,2.75
2019-04-30T16:00:54.227Z,3.08
2019-04-30T16:03:30.829Z,3.17
2019-04-30T16:05:59.544Z,3.10
2019-04-30T16:08:35.894Z,3.00
2019-04-30T16:11:21.383Z,2.65
2019-04-30T16:13:54.758Z,3.12
2019-04-30T16:16:24.357Z,3.42
2019-04-30T16:18:53.153Z,3.47
2019-04-30T16:21:21.873Z,3.30
2019-04-30T16:23:50.714Z,3.08
2019-04-30T16:26:19.582Z,3.20
2019-04-30T16:28:49.541Z,2.85
2019-04-30T16:31:20.393Z,3.00
2019-04-30T16:33:49.364Z,3.17
2019-04-30T16:36:19.338Z,2.67
2019-04-30T16:38:48.690Z,2.95
2019-04-30T16:41:30.680Z,2.90
2019-04-30T16:43:48.856Z,2.95
2019-04-30T16:46:18.058Z,2.75
2019-04-30T16:48:48.819Z,2.90
2019-04-30T16:51:18.767Z,3.92
2019-04-30T16:53:48.699Z,3.15
2019-04-30T16:56:18.582Z,3.35
2019-04-30T16:59:02.155Z,3.10
2019-04-30T17:01:33.064Z,2.90
2019-04-30T17:04:09.504Z,3.27
2019-04-30T17:06:45.623Z,3.33
2019-04-30T17:09:18.890Z,3.92
2019-04-30T17:12:05.408Z,3.80
2019-04-30T17:14:35.817Z,3.67
2019-04-30T17:17:04.576Z,3.58
2019-04-30T17:19:33.271Z,3.67
2019-04-30T17:22:02.096Z,4.22
2019-04-30T17:24:31.017Z,3.80
2019-04-30T17:26:59.748Z,3.15
2019-04-30T17:29:28.479Z,3.60
2019-04-30T17:31:57.195Z,3.77
2019-04-30T17:34:26.016Z,3.67
2019-04-30T17:36:54.796Z,3.85
2019-04-30T17:39:25.108Z,4.12
2019-04-30T17:41:53.897Z,4.53
2019-04-30T17:44:22.634Z,4.50
2019-04-30T17:46:51.693Z,4.40
2019-04-30T17:49:21.499Z,4.72
2019-04-30T17:51:50.146Z,4.60
2019-04-30T17:54:19.049Z,6.08
2019-04-30T17:56:47.851Z,5.80
2019-04-30T17:59:16.728Z,5.28
2019-04-30T18:01:47.188Z,5.97
2019-04-30T18:04:15.989Z,6.10
2019-04-30T18:06:44.720Z,5.92
2019-04-30T18:09:15.254Z,6.33
2019-04-30T18:11:43.948Z,5.12
2019-04-30T18:14:12.936Z,5.95
2019-04-30T18:16:41.840Z,6.03
2019-04-30T18:19:12.209Z,6.72
2019-04-30T18:21:48.657Z,7.28
2019-04-30T18:24:32.472Z,6.80
2019-04-30T18:27:08.628Z,9.28
2019-04-30T18:29:37.465Z,9.18
2019-04-30T18:32:06.369Z,9.60
2019-04-30T18:34:35.080Z,9.75
2019-04-30T18:37:03.812Z,8.30
2019-04-30T18:39:33.308Z,10.38
2019-04-30T18:42:02.041Z,9.78
2019-04-30T18:44:30.944Z,9.33
2019-04-30T18:46:59.664Z,10.00
2019-04-30T18:49:28.758Z,9.45
2019-04-30T18:51:59.021Z,8.55
2019-04-30T18:54:28.967Z,9.70
2019-04-30T18:56:58.957Z,10.08
2019-04-30T18:59:27.878Z,10.00
2019-04-30T19:01:56.650Z,8.00
2019-04-30T19:04:25.440Z,9.73
2019-04-30T19:06:55.874Z,8.25
2019-04-30T19:09:40.011Z,8.93
2019-04-30T19:12:12.946Z,10.78
2019-04-30T19:15:00.993Z,11.03
2019-04-30T19:17:34.368Z,9.55
2019-04-30T19:20:14.347Z,9.88
2019-04-30T19:22:43.146Z,10.48
2019-04-30T19:25:12.859Z,11.43
2019-04-30T19:27:41.826Z,10.65
2019-04-30T19:30:10.891Z,9.68
2019-04-30T19:32:39.643Z,11.00
2019-04-30T19:35:09.097Z,13.65
2019-04-30T19:37:38.606Z,12.03
2019-04-30T19:40:08.967Z,9.20
2019-04-30T19:42:39.437Z,12.28
2019-04-30T19:45:11.699Z,13.35
2019-04-30T19:47:39.164Z,14.07
2019-04-30T19:50:09.391Z,14.43
2019-04-30T19:52:38.270Z,15.72
2019-04-30T19:55:07.322Z,11.75
2019-04-30T19:57:36.055Z,7.90
2019-04-30T20:00:05.782Z,9.80
2019-04-30T20:02:34.496Z,10.00
2019-04-30T20:05:03.362Z,9.18
2019-04-30T20:07:32.188Z,8.93
2019-04-30T20:10:03.863Z,8.90
2019-04-30T20:12:31.419Z,9.40
2019-04-30T20:15:00.580Z,9.38
2019-04-30T20:17:29.650Z,7.55
2019-04-30T20:19:58.919Z,9.93
2019-04-30T20:22:29.144Z,10.20
2019-04-30T20:24:59.276Z,9.15
2019-04-30T20:27:29.802Z,11.48
2019-04-30T20:29:59.202Z,9.30
2019-04-30T20:32:36.159Z,10.80
2019-04-30T20:34:59.791Z,12.47
2019-04-30T20:37:29.455Z,14.45
2019-04-30T20:40:00.658Z,19.73
2019-04-30T20:42:29.447Z,29.98
2019-04-30T20:44:58.880Z,21.85
2019-04-30T20:47:29.874Z,20.77
2019-04-30T20:49:58.255Z,21.62
2019-04-30T20:52:28.946Z,20.32
2019-04-30T20:54:57.433Z,22.50
2019-04-30T20:57:26.206Z,19.40
2019-04-30T20:59:54.947Z,17.85
2019-04-30T21:02:23.621Z,18.30
2019-04-30T21:04:52.386Z,18.55
2019-04-30T21:07:21.771Z,18.73
2019-04-30T21:09:50.528Z,18.05
2019-04-30T21:12:19.261Z,19.07
2019-04-30T21:14:48.547Z,15.95
2019-04-30T21:17:17.440Z,13.28
2019-04-30T21:19:46.133Z,13.90
2019-04-30T21:22:14.947Z,13.50
2019-04-30T21:24:43.729Z,12.63
2019-04-30T21:27:12.551Z,11.30
2019-04-30T21:29:41.299Z,13.50
2019-04-30T21:32:19.027Z,12.40
2019-04-30T21:34:49.392Z,12.30
2019-04-30T21:37:18.092Z,12.28
2019-04-30T21:39:49.957Z,12.78
2019-04-30T21:42:17.291Z,12.68
2019-04-30T21:44:46.084Z,12.65
2019-04-30T21:47:14.809Z,12.30
2019-04-30T21:49:43.597Z,12.45
2019-04-30T21:52:13.787Z,12.60
2019-04-30T21:54:42.541Z,12.55
2019-04-30T21:57:11.263Z,12.68
2019-04-30T21:59:40.012Z,14.78
2019-04-30T22:02:09.716Z,14.18
2019-04-30T22:04:38.450Z,14.58
2019-04-30T22:07:09.269Z,15.13
2019-04-30T22:09:39.947Z,16.40
2019-04-30T22:12:09.199Z,15.38
2019-04-30T22:14:38.085Z,14.60
2019-04-30T22:17:06.928Z,14.80
2019-04-30T22:19:36.688Z,15.00
2019-04-30T22:22:05.475Z,14.15
2019-04-30T22:24:34.198Z,15.40
2019-04-30T22:27:02.921Z,14.68
2019-04-30T22:29:39.263Z,15.48
2019-04-30T22:32:02.121Z,15.60
2019-04-30T22:34:30.910Z,14.33
2019-04-30T22:36:59.885Z,11.75
2019-04-30T22:39:30.250Z,13.40
2019-04-30T22:42:01.906Z,13.43
2019-04-30T22:44:30.688Z,12.03
2019-04-30T22:47:00.713Z,12.60
2019-04-30T22:49:29.739Z,12.28
2019-04-30T22:51:58.425Z,11.50
2019-04-30T22:54:27.148Z,11.08
2019-04-30T22:56:55.885Z,11.28
2019-04-30T22:59:24.833Z,10.88
2019-04-30T23:01:58.230Z,11.03
2019-04-30T23:04:28.594Z,10.70
2019-04-30T23:06:57.319Z,11.43
2019-04-30T23:09:26.155Z,11.88
2019-04-30T23:11:54.956Z,10.95
2019-04-30T23:14:23.727Z,10.60
2019-04-30T23:16:52.544Z,11.20
2019-04-30T23:19:21.259Z,11.88
2019-04-30T23:21:50.093Z,10.58
2019-04-30T23:24:18.811Z,12.33
2019-04-30T23:26:47.524Z,11.75
2019-04-30T23:29:16.340Z,10.88
2019-04-30T23:31:45.198Z,11.55
2019-04-30T23:34:18.206Z,11.75
2019-04-30T23:36:44.354Z,14.38
2019-04-30T23:39:13.142Z,14.03
2019-04-30T23:41:41.958Z,12.30
2019-04-30T23:44:10.791Z,14.55
2019-04-30T23:46:39.497Z,13.45
2019-04-30T23:49:08.217Z,14.85
2019-04-30T23:51:36.935Z,15.10
2019-04-30T23:54:05.679Z,15.10
2019-04-30T23:56:34.405Z,17.02
2019-04-30T23:59:03.211Z,14.35
